sensor_id;sensor_type;location;lat;lon;timestamp;P1;durP1;ratioP1;P2;durP2;ratioP2
4915;SDS011;70796;52.406;13.230;2024-02-16T00:01:35;6.37;;;4.70;;
4915;SDS011;70796;52.406;13.230;2024-02-16T00:04:02;5.50;;;5.00;;
4915;SDS011;70796;52.406;13.230;2024-02-16T00:06:28;5.83;;;4.60;;
4915;SDS011;70796;52.406;13.230;2024-02-16T00:08:54;8.47;;;5.47;;
4915;SDS011;70796;52.406;13.230;2024-02-16T00:11:21;6.17;;;5.23;;
4915;SDS011;70796;52.406;13.230;2024-02-16T00:13:49;5.87;;;5.10;;
4915;SDS011;70796;52.406;13.230;2024-02-16T00:16:15;10.63;;;5.93;;
4915;SDS011;70796;52.406;13.230;2024-02-16T00:18:42;7.37;;;5.77;;
4915;SDS011;70796;52.406;13.230;2024-02-16T00:21:10;8.53;;;6.43;;
4915;SDS011;70796;52.406;13.230;2024-02-16T00:23:38;9.70;;;6.23;;
4915;SDS011;70796;52.406;13.230;2024-02-16T00:26:05;12.00;;;6.03;;
4915;SDS011;70796;52.406;13.230;2024-02-16T00:28:33;9.80;;;6.13;;
4915;SDS011;70796;52.406;13.230;2024-02-16T00:30:59;11.77;;;5.47;;
4915;SDS011;70796;52.406;13.230;2024-02-16T00:33:26;11.77;;;6.13;;
4915;SDS011;70796;52.406;13.230;2024-02-16T00:35:55;7.10;;;5.90;;
4915;SDS011;70796;52.406;13.230;2024-02-16T00:38:21;6.07;;;5.47;;
4915;SDS011;70796;52.406;13.230;2024-02-16T00:40:50;9.93;;;6.87;;
4915;SDS011;70796;52.406;13.230;2024-02-16T00:43:16;10.10;;;6.23;;
4915;SDS011;70796;52.406;13.230;2024-02-16T00:45:44;8.37;;;5.87;;
4915;SDS011;70796;52.406;13.230;2024-02-16T00:48:11;11.90;;;6.60;;
4915;SDS011;70796;52.406;13.230;2024-02-16T00:50:38;11.03;;;6.20;;
4915;SDS011;70796;52.406;13.230;2024-02-16T00:53:04;8.37;;;6.47;;
4915;SDS011;70796;52.406;13.230;2024-02-16T00:55:31;8.90;;;7.07;;
4915;SDS011;70796;52.406;13.230;2024-02-16T00:57:57;7.73;;;6.17;;
4915;SDS011;70796;52.406;13.230;2024-02-16T01:00:24;9.60;;;6.50;;
4915;SDS011;70796;52.406;13.230;2024-02-16T01:02:51;7.70;;;6.50;;
4915;SDS011;70796;52.406;13.230;2024-02-16T01:05:18;12.03;;;6.83;;
4915;SDS011;70796;52.406;13.230;2024-02-16T01:07:46;9.63;;;7.00;;
4915;SDS011;70796;52.406;13.230;2024-02-16T01:10:13;10.53;;;6.53;;
4915;SDS011;70796;52.406;13.230;2024-02-16T01:12:39;11.27;;;8.23;;
4915;SDS011;70796;52.406;13.230;2024-02-16T01:15:06;11.30;;;7.83;;
4915;SDS011;70796;52.406;13.230;2024-02-16T01:17:32;11.30;;;7.93;;
4915;SDS011;70796;52.406;13.230;2024-02-16T01:19:59;9.53;;;7.27;;
4915;SDS011;70796;52.406;13.230;2024-02-16T01:22:26;17.53;;;8.50;;
4915;SDS011;70796;52.406;13.230;2024-02-16T01:24:55;13.50;;;9.27;;
4915;SDS011;70796;52.406;13.230;2024-02-16T01:27:21;15.10;;;8.37;;
4915;SDS011;70796;52.406;13.230;2024-02-16T01:29:48;9.70;;;7.00;;
4915;SDS011;70796;52.406;13.230;2024-02-16T01:32:14;14.33;;;7.00;;
4915;SDS011;70796;52.406;13.230;2024-02-16T01:34:41;11.27;;;7.90;;
4915;SDS011;70796;52.406;13.230;2024-02-16T01:37:07;12.20;;;9.33;;
4915;SDS011;70796;52.406;13.230;2024-02-16T01:39:34;15.67;;;9.47;;
4915;SDS011;70796;52.406;13.230;2024-02-16T01:42:00;17.17;;;10.40;;
4915;SDS011;70796;52.406;13.230;2024-02-16T01:44:27;15.20;;;10.83;;
4915;SDS011;70796;52.406;13.230;2024-02-16T01:46:54;15.60;;;10.33;;
4915;SDS011;70796;52.406;13.230;2024-02-16T01:49:20;13.73;;;8.73;;
4915;SDS011;70796;52.406;13.230;2024-02-16T01:51:47;12.37;;;9.60;;
4915;SDS011;70796;52.406;13.230;2024-02-16T01:54:14;15.57;;;10.90;;
4915;SDS011;70796;52.406;13.230;2024-02-16T01:56:44;18.03;;;11.53;;
4915;SDS011;70796;52.406;13.230;2024-02-16T01:59:11;17.50;;;11.63;;
4915;SDS011;70796;52.406;13.230;2024-02-16T02:01:37;21.90;;;15.23;;
4915;SDS011;70796;52.406;13.230;2024-02-16T02:04:04;18.13;;;13.90;;
4915;SDS011;70796;52.406;13.230;2024-02-16T02:06:32;18.33;;;13.37;;
4915;SDS011;70796;52.406;13.230;2024-02-16T02:08:59;23.47;;;15.40;;
4915;SDS011;70796;52.406;13.230;2024-02-16T02:11:25;24.73;;;15.00;;
4915;SDS011;70796;52.406;13.230;2024-02-16T02:13:51;19.60;;;14.43;;
4915;SDS011;70796;52.406;13.230;2024-02-16T02:16:18;27.30;;;17.50;;
4915;SDS011;70796;52.406;13.230;2024-02-16T02:18:45;21.00;;;15.17;;
4915;SDS011;70796;52.406;13.230;2024-02-16T02:21:13;22.00;;;15.70;;
4915;SDS011;70796;52.406;13.230;2024-02-16T02:23:41;24.60;;;16.70;;
4915;SDS011;70796;52.406;13.230;2024-02-16T02:26:07;28.90;;;17.60;;
4915;SDS011;70796;52.406;13.230;2024-02-16T02:28:33;24.37;;;16.50;;
4915;SDS011;70796;52.406;13.230;2024-02-16T02:31:02;25.83;;;17.37;;
4915;SDS011;70796;52.406;13.230;2024-02-16T02:33:30;25.90;;;16.57;;
4915;SDS011;70796;52.406;13.230;2024-02-16T02:35:57;25.53;;;17.20;;
4915;SDS011;70796;52.406;13.230;2024-02-16T02:38:24;34.80;;;17.20;;
4915;SDS011;70796;52.406;13.230;2024-02-16T02:40:52;27.60;;;17.37;;
4915;SDS011;70796;52.406;13.230;2024-02-16T02:43:20;24.27;;;16.90;;
4915;SDS011;70796;52.406;13.230;2024-02-16T02:45:49;24.97;;;17.37;;
4915;SDS011;70796;52.406;13.230;2024-02-16T02:48:16;23.57;;;16.97;;
4915;SDS011;70796;52.406;13.230;2024-02-16T02:50:43;22.97;;;17.60;;
4915;SDS011;70796;52.406;13.230;2024-02-16T02:53:09;23.70;;;17.50;;
4915;SDS011;70796;52.406;13.230;2024-02-16T02:55:35;26.43;;;19.30;;
4915;SDS011;70796;52.406;13.230;2024-02-16T02:58:02;31.70;;;18.40;;
4915;SDS011;70796;52.406;13.230;2024-02-16T03:00:28;26.03;;;17.60;;
4915;SDS011;70796;52.406;13.230;2024-02-16T03:02:56;30.03;;;18.87;;
4915;SDS011;70796;52.406;13.230;2024-02-16T03:05:23;24.20;;;17.40;;
4915;SDS011;70796;52.406;13.230;2024-02-16T03:07:49;27.77;;;16.80;;
4915;SDS011;70796;52.406;13.230;2024-02-16T03:10:15;22.40;;;17.60;;
4915;SDS011;70796;52.406;13.230;2024-02-16T03:12:48;24.53;;;17.43;;
4915;SDS011;70796;52.406;13.230;2024-02-16T03:15:18;32.40;;;16.87;;
4915;SDS011;70796;52.406;13.230;2024-02-16T03:17:44;29.20;;;19.20;;
4915;SDS011;70796;52.406;13.230;2024-02-16T03:20:11;26.90;;;17.53;;
4915;SDS011;70796;52.406;13.230;2024-02-16T03:22:38;26.97;;;17.97;;
4915;SDS011;70796;52.406;13.230;2024-02-16T03:25:04;22.00;;;15.77;;
4915;SDS011;70796;52.406;13.230;2024-02-16T03:27:31;24.60;;;16.87;;
4915;SDS011;70796;52.406;13.230;2024-02-16T03:29:58;28.07;;;15.67;;
4915;SDS011;70796;52.406;13.230;2024-02-16T03:32:25;26.67;;;17.33;;
4915;SDS011;70796;52.406;13.230;2024-02-16T03:34:52;22.77;;;16.17;;
4915;SDS011;70796;52.406;13.230;2024-02-16T03:37:18;25.53;;;16.93;;
4915;SDS011;70796;52.406;13.230;2024-02-16T03:39:45;30.30;;;17.43;;
4915;SDS011;70796;52.406;13.230;2024-02-16T03:42:11;24.37;;;16.63;;
4915;SDS011;70796;52.406;13.230;2024-02-16T03:44:38;19.57;;;15.60;;
4915;SDS011;70796;52.406;13.230;2024-02-16T03:47:04;22.13;;;16.23;;
4915;SDS011;70796;52.406;13.230;2024-02-16T03:49:31;22.60;;;15.40;;
4915;SDS011;70796;52.406;13.230;2024-02-16T03:51:57;27.40;;;16.67;;
4915;SDS011;70796;52.406;13.230;2024-02-16T03:54:25;20.03;;;15.73;;
4915;SDS011;70796;52.406;13.230;2024-02-16T03:56:54;25.40;;;16.83;;
4915;SDS011;70796;52.406;13.230;2024-02-16T03:59:21;29.50;;;17.10;;
4915;SDS011;70796;52.406;13.230;2024-02-16T04:01:47;21.83;;;14.73;;
4915;SDS011;70796;52.406;13.230;2024-02-16T04:04:14;22.00;;;16.40;;
4915;SDS011;70796;52.406;13.230;2024-02-16T04:06:41;25.00;;;15.77;;
4915;SDS011;70796;52.406;13.230;2024-02-16T04:09:07;21.03;;;14.63;;
4915;SDS011;70796;52.406;13.230;2024-02-16T04:11:34;24.23;;;14.87;;
4915;SDS011;70796;52.406;13.230;2024-02-16T04:14:01;25.17;;;16.07;;
4915;SDS011;70796;52.406;13.230;2024-02-16T04:16:28;24.30;;;16.00;;
4915;SDS011;70796;52.406;13.230;2024-02-16T04:18:54;25.07;;;16.20;;
4915;SDS011;70796;52.406;13.230;2024-02-16T04:21:22;21.93;;;14.90;;
4915;SDS011;70796;52.406;13.230;2024-02-16T04:23:48;20.43;;;13.93;;
4915;SDS011;70796;52.406;13.230;2024-02-16T04:26:15;21.37;;;14.67;;
4915;SDS011;70796;52.406;13.230;2024-02-16T04:28:41;22.03;;;14.03;;
4915;SDS011;70796;52.406;13.230;2024-02-16T04:31:07;24.93;;;14.97;;
4915;SDS011;70796;52.406;13.230;2024-02-16T04:33:34;20.57;;;14.27;;
4915;SDS011;70796;52.406;13.230;2024-02-16T04:36:01;20.07;;;14.27;;
4915;SDS011;70796;52.406;13.230;2024-02-16T04:38:27;19.90;;;13.10;;
4915;SDS011;70796;52.406;13.230;2024-02-16T04:40:54;17.50;;;13.93;;
4915;SDS011;70796;52.406;13.230;2024-02-16T04:43:20;20.53;;;12.57;;
4915;SDS011;70796;52.406;13.230;2024-02-16T04:45:47;19.63;;;13.47;;
4915;SDS011;70796;52.406;13.230;2024-02-16T04:48:14;19.60;;;13.70;;
4915;SDS011;70796;52.406;13.230;2024-02-16T04:50:40;20.20;;;13.57;;
4915;SDS011;70796;52.406;13.230;2024-02-16T04:53:06;18.97;;;12.90;;
4915;SDS011;70796;52.406;13.230;2024-02-16T04:55:33;18.00;;;12.63;;
4915;SDS011;70796;52.406;13.230;2024-02-16T04:57:59;17.70;;;13.00;;
4915;SDS011;70796;52.406;13.230;2024-02-16T05:00:26;15.80;;;11.90;;
4915;SDS011;70796;52.406;13.230;2024-02-16T05:02:52;17.80;;;12.70;;
4915;SDS011;70796;52.406;13.230;2024-02-16T05:05:19;19.03;;;12.60;;
4915;SDS011;70796;52.406;13.230;2024-02-16T05:07:49;22.83;;;13.40;;
4915;SDS011;70796;52.406;13.230;2024-02-16T05:10:18;19.43;;;13.50;;
4915;SDS011;70796;52.406;13.230;2024-02-16T05:12:45;15.70;;;11.90;;
4915;SDS011;70796;52.406;13.230;2024-02-16T05:15:12;20.60;;;12.70;;
4915;SDS011;70796;52.406;13.230;2024-02-16T05:17:46;20.47;;;14.10;;
4915;SDS011;70796;52.406;13.230;2024-02-16T05:20:13;17.47;;;12.60;;
4915;SDS011;70796;52.406;13.230;2024-02-16T05:22:46;17.57;;;12.37;;
4915;SDS011;70796;52.406;13.230;2024-02-16T05:25:13;20.50;;;12.10;;
4915;SDS011;70796;52.406;13.230;2024-02-16T05:27:40;17.33;;;12.37;;
4915;SDS011;70796;52.406;13.230;2024-02-16T05:30:08;21.50;;;13.90;;
4915;SDS011;70796;52.406;13.230;2024-02-16T05:32:35;21.57;;;13.30;;
4915;SDS011;70796;52.406;13.230;2024-02-16T05:35:03;28.20;;;11.97;;
4915;SDS011;70796;52.406;13.230;2024-02-16T05:37:38;16.30;;;12.20;;
4915;SDS011;70796;52.406;13.230;2024-02-16T05:40:08;16.70;;;12.43;;
4915;SDS011;70796;52.406;13.230;2024-02-16T05:42:46;22.30;;;14.10;;
4915;SDS011;70796;52.406;13.230;2024-02-16T05:45:16;25.53;;;13.73;;
4915;SDS011;70796;52.406;13.230;2024-02-16T05:47:43;25.20;;;13.37;;
4915;SDS011;70796;52.406;13.230;2024-02-16T05:50:11;26.53;;;13.93;;
4915;SDS011;70796;52.406;13.230;2024-02-16T05:52:39;17.70;;;13.07;;
4915;SDS011;70796;52.406;13.230;2024-02-16T05:55:09;21.20;;;13.23;;
4915;SDS011;70796;52.406;13.230;2024-02-16T05:57:38;21.73;;;13.13;;
4915;SDS011;70796;52.406;13.230;2024-02-16T06:00:08;22.27;;;12.50;;
4915;SDS011;70796;52.406;13.230;2024-02-16T06:02:37;20.27;;;12.97;;
4915;SDS011;70796;52.406;13.230;2024-02-16T06:05:05;20.50;;;13.13;;
4915;SDS011;70796;52.406;13.230;2024-02-16T06:07:32;18.23;;;12.50;;
4915;SDS011;70796;52.406;13.230;2024-02-16T06:09:58;17.60;;;12.73;;
4915;SDS011;70796;52.406;13.230;2024-02-16T06:12:25;18.17;;;12.40;;
4915;SDS011;70796;52.406;13.230;2024-02-16T06:14:51;18.37;;;13.37;;
4915;SDS011;70796;52.406;13.230;2024-02-16T06:17:20;20.07;;;13.40;;
4915;SDS011;70796;52.406;13.230;2024-02-16T06:19:47;19.73;;;11.33;;
4915;SDS011;70796;52.406;13.230;2024-02-16T06:22:14;17.40;;;12.27;;
4915;SDS011;70796;52.406;13.230;2024-02-16T06:24:41;25.17;;;13.43;;
4915;SDS011;70796;52.406;13.230;2024-02-16T06:27:07;23.97;;;12.10;;
4915;SDS011;70796;52.406;13.230;2024-02-16T06:29:36;18.40;;;11.63;;
4915;SDS011;70796;52.406;13.230;2024-02-16T06:32:03;16.17;;;11.57;;
4915;SDS011;70796;52.406;13.230;2024-02-16T06:34:29;20.17;;;14.23;;
4915;SDS011;70796;52.406;13.230;2024-02-16T06:36:56;21.73;;;13.27;;
4915;SDS011;70796;52.406;13.230;2024-02-16T06:39:22;22.90;;;13.23;;
4915;SDS011;70796;52.406;13.230;2024-02-16T06:41:49;18.80;;;12.10;;
4915;SDS011;70796;52.406;13.230;2024-02-16T06:44:16;19.07;;;12.40;;
4915;SDS011;70796;52.406;13.230;2024-02-16T06:46:46;17.47;;;12.13;;
4915;SDS011;70796;52.406;13.230;2024-02-16T06:49:12;19.70;;;12.30;;
4915;SDS011;70796;52.406;13.230;2024-02-16T06:51:39;23.73;;;11.97;;
4915;SDS011;70796;52.406;13.230;2024-02-16T06:54:06;16.73;;;10.60;;
4915;SDS011;70796;52.406;13.230;2024-02-16T06:56:33;16.97;;;10.60;;
4915;SDS011;70796;52.406;13.230;2024-02-16T06:59:00;17.63;;;10.90;;
4915;SDS011;70796;52.406;13.230;2024-02-16T07:01:26;18.03;;;11.37;;
4915;SDS011;70796;52.406;13.230;2024-02-16T07:03:53;17.60;;;11.40;;
4915;SDS011;70796;52.406;13.230;2024-02-16T07:06:20;21.40;;;11.13;;
4915;SDS011;70796;52.406;13.230;2024-02-16T07:08:47;18.07;;;12.60;;
4915;SDS011;70796;52.406;13.230;2024-02-16T07:11:14;19.80;;;11.40;;
4915;SDS011;70796;52.406;13.230;2024-02-16T07:13:40;24.27;;;12.43;;
4915;SDS011;70796;52.406;13.230;2024-02-16T07:16:07;20.90;;;11.60;;
4915;SDS011;70796;52.406;13.230;2024-02-16T07:18:36;18.30;;;10.73;;
4915;SDS011;70796;52.406;13.230;2024-02-16T07:21:04;15.60;;;11.47;;
4915;SDS011;70796;52.406;13.230;2024-02-16T07:23:30;15.93;;;10.30;;
4915;SDS011;70796;52.406;13.230;2024-02-16T07:25:57;15.97;;;10.00;;
4915;SDS011;70796;52.406;13.230;2024-02-16T07:28:24;18.83;;;10.27;;
4915;SDS011;70796;52.406;13.230;2024-02-16T07:30:51;20.53;;;10.83;;
4915;SDS011;70796;52.406;13.230;2024-02-16T07:33:18;20.60;;;11.43;;
4915;SDS011;70796;52.406;13.230;2024-02-16T07:35:44;22.07;;;11.33;;
4915;SDS011;70796;52.406;13.230;2024-02-16T07:38:11;19.37;;;10.63;;
4915;SDS011;70796;52.406;13.230;2024-02-16T07:40:38;18.53;;;10.60;;
4915;SDS011;70796;52.406;13.230;2024-02-16T07:43:04;18.03;;;10.37;;
4915;SDS011;70796;52.406;13.230;2024-02-16T07:45:31;20.63;;;10.37;;
4915;SDS011;70796;52.406;13.230;2024-02-16T07:47:58;17.90;;;10.07;;
4915;SDS011;70796;52.406;13.230;2024-02-16T07:50:25;23.40;;;10.03;;
4915;SDS011;70796;52.406;13.230;2024-02-16T07:52:51;15.13;;;9.10;;
4915;SDS011;70796;52.406;13.230;2024-02-16T07:55:17;12.87;;;9.10;;
4915;SDS011;70796;52.406;13.230;2024-02-16T07:57:44;13.63;;;8.43;;
4915;SDS011;70796;52.406;13.230;2024-02-16T08:00:11;14.73;;;9.03;;
4915;SDS011;70796;52.406;13.230;2024-02-16T08:02:38;10.67;;;7.07;;
4915;SDS011;70796;52.406;13.230;2024-02-16T08:05:06;10.13;;;7.07;;
4915;SDS011;70796;52.406;13.230;2024-02-16T08:07:34;11.43;;;7.50;;
4915;SDS011;70796;52.406;13.230;2024-02-16T08:10:01;8.93;;;6.83;;
4915;SDS011;70796;52.406;13.230;2024-02-16T08:12:28;11.50;;;7.40;;
4915;SDS011;70796;52.406;13.230;2024-02-16T08:14:54;12.40;;;7.40;;
4915;SDS011;70796;52.406;13.230;2024-02-16T08:17:23;9.93;;;6.80;;
4915;SDS011;70796;52.406;13.230;2024-02-16T08:19:53;12.67;;;7.10;;
4915;SDS011;70796;52.406;13.230;2024-02-16T08:22:20;8.53;;;7.10;;
4915;SDS011;70796;52.406;13.230;2024-02-16T08:24:47;11.17;;;6.40;;
4915;SDS011;70796;52.406;13.230;2024-02-16T08:27:16;8.00;;;6.53;;
4915;SDS011;70796;52.406;13.230;2024-02-16T08:29:42;10.40;;;6.53;;
4915;SDS011;70796;52.406;13.230;2024-02-16T08:32:09;9.17;;;6.80;;
4915;SDS011;70796;52.406;13.230;2024-02-16T08:34:36;10.03;;;6.90;;
4915;SDS011;70796;52.406;13.230;2024-02-16T08:37:03;8.70;;;6.77;;
4915;SDS011;70796;52.406;13.230;2024-02-16T08:39:30;9.90;;;6.50;;
4915;SDS011;70796;52.406;13.230;2024-02-16T08:41:57;8.07;;;5.80;;
4915;SDS011;70796;52.406;13.230;2024-02-16T08:44:25;8.40;;;6.43;;
4915;SDS011;70796;52.406;13.230;2024-02-16T08:46:52;6.80;;;6.07;;
4915;SDS011;70796;52.406;13.230;2024-02-16T08:49:19;9.10;;;5.97;;
4915;SDS011;70796;52.406;13.230;2024-02-16T08:51:46;11.80;;;6.57;;
4915;SDS011;70796;52.406;13.230;2024-02-16T08:54:13;14.07;;;7.47;;
4915;SDS011;70796;52.406;13.230;2024-02-16T08:56:40;9.20;;;6.67;;
4915;SDS011;70796;52.406;13.230;2024-02-16T08:59:06;9.13;;;6.40;;
4915;SDS011;70796;52.406;13.230;2024-02-16T09:01:34;10.67;;;5.53;;
4915;SDS011;70796;52.406;13.230;2024-02-16T09:04:00;7.70;;;5.77;;
4915;SDS011;70796;52.406;13.230;2024-02-16T09:06:28;8.40;;;4.90;;
4915;SDS011;70796;52.406;13.230;2024-02-16T09:08:54;11.60;;;5.60;;
4915;SDS011;70796;52.406;13.230;2024-02-16T09:11:21;8.67;;;5.60;;
4915;SDS011;70796;52.406;13.230;2024-02-16T09:13:48;8.20;;;5.77;;
4915;SDS011;70796;52.406;13.230;2024-02-16T09:16:15;11.37;;;5.70;;
4915;SDS011;70796;52.406;13.230;2024-02-16T09:18:42;7.47;;;4.70;;
4915;SDS011;70796;52.406;13.230;2024-02-16T09:21:10;8.50;;;5.90;;
4915;SDS011;70796;52.406;13.230;2024-02-16T09:23:37;7.63;;;5.33;;
4915;SDS011;70796;52.406;13.230;2024-02-16T09:26:04;10.77;;;5.20;;
4915;SDS011;70796;52.406;13.230;2024-02-16T09:28:31;8.43;;;5.20;;
4915;SDS011;70796;52.406;13.230;2024-02-16T09:30:58;13.63;;;5.03;;
4915;SDS011;70796;52.406;13.230;2024-02-16T09:33:25;6.23;;;5.07;;
4915;SDS011;70796;52.406;13.230;2024-02-16T09:35:56;5.63;;;4.97;;
4915;SDS011;70796;52.406;13.230;2024-02-16T09:38:23;6.07;;;4.80;;
4915;SDS011;70796;52.406;13.230;2024-02-16T09:40:50;5.90;;;4.60;;
4915;SDS011;70796;52.406;13.230;2024-02-16T09:43:25;7.13;;;5.10;;
4915;SDS011;70796;52.406;13.230;2024-02-16T09:45:53;7.67;;;4.70;;
4915;SDS011;70796;52.406;13.230;2024-02-16T09:48:20;6.50;;;4.10;;
4915;SDS011;70796;52.406;13.230;2024-02-16T09:50:47;6.27;;;4.70;;
4915;SDS011;70796;52.406;13.230;2024-02-16T09:53:14;7.47;;;4.80;;
4915;SDS011;70796;52.406;13.230;2024-02-16T09:55:41;6.60;;;5.13;;
4915;SDS011;70796;52.406;13.230;2024-02-16T09:58:09;6.70;;;4.20;;
4915;SDS011;70796;52.406;13.230;2024-02-16T10:00:39;5.80;;;4.60;;
4915;SDS011;70796;52.406;13.230;2024-02-16T10:03:06;6.60;;;4.43;;
4915;SDS011;70796;52.406;13.230;2024-02-16T10:05:32;6.20;;;4.70;;
4915;SDS011;70796;52.406;13.230;2024-02-16T10:07:58;7.57;;;4.63;;
4915;SDS011;70796;52.406;13.230;2024-02-16T10:10:26;5.30;;;4.20;;
4915;SDS011;70796;52.406;13.230;2024-02-16T10:13:02;7.90;;;5.13;;
4915;SDS011;70796;52.406;13.230;2024-02-16T10:15:30;6.90;;;4.97;;
4915;SDS011;70796;52.406;13.230;2024-02-16T10:18:00;6.13;;;4.20;;
4915;SDS011;70796;52.406;13.230;2024-02-16T10:20:27;7.70;;;4.73;;
4915;SDS011;70796;52.406;13.230;2024-02-16T10:23:06;8.20;;;6.07;;
4915;SDS011;70796;52.406;13.230;2024-02-16T10:25:33;9.70;;;5.40;;
4915;SDS011;70796;52.406;13.230;2024-02-16T10:28:04;9.23;;;4.67;;
4915;SDS011;70796;52.406;13.230;2024-02-16T10:30:31;7.27;;;4.80;;
4915;SDS011;70796;52.406;13.230;2024-02-16T10:33:00;8.60;;;5.10;;
4915;SDS011;70796;52.406;13.230;2024-02-16T10:35:29;8.87;;;5.57;;
4915;SDS011;70796;52.406;13.230;2024-02-16T10:37:55;6.80;;;4.57;;
4915;SDS011;70796;52.406;13.230;2024-02-16T10:40:23;6.23;;;4.73;;
4915;SDS011;70796;52.406;13.230;2024-02-16T10:42:49;7.70;;;4.63;;
4915;SDS011;70796;52.406;13.230;2024-02-16T10:45:17;8.60;;;4.87;;
4915;SDS011;70796;52.406;13.230;2024-02-16T10:47:43;7.67;;;4.93;;
4915;SDS011;70796;52.406;13.230;2024-02-16T10:50:10;8.27;;;4.80;;
4915;SDS011;70796;52.406;13.230;2024-02-16T10:52:37;8.13;;;5.47;;
4915;SDS011;70796;52.406;13.230;2024-02-16T10:55:05;7.80;;;5.00;;
4915;SDS011;70796;52.406;13.230;2024-02-16T10:57:41;6.20;;;4.13;;
4915;SDS011;70796;52.406;13.230;2024-02-16T11:00:10;6.37;;;4.23;;
4915;SDS011;70796;52.406;13.230;2024-02-16T11:02:53;6.73;;;4.87;;
4915;SDS011;70796;52.406;13.230;2024-02-16T11:08:18;5.80;;;3.93;;
4915;SDS011;70796;52.406;13.230;2024-02-16T11:11:00;20.50;;;4.90;;
4915;SDS011;70796;52.406;13.230;2024-02-16T11:13:28;8.00;;;4.50;;
4915;SDS011;70796;52.406;13.230;2024-02-16T11:15:58;6.33;;;4.03;;
4915;SDS011;70796;52.406;13.230;2024-02-16T11:18:29;7.13;;;4.33;;
4915;SDS011;70796;52.406;13.230;2024-02-16T11:21:01;5.00;;;4.13;;
4915;SDS011;70796;52.406;13.230;2024-02-16T11:23:31;5.10;;;4.17;;
4915;SDS011;70796;52.406;13.230;2024-02-16T11:26:01;8.70;;;4.90;;
4915;SDS011;70796;52.406;13.230;2024-02-16T11:28:33;4.40;;;3.70;;
4915;SDS011;70796;52.406;13.230;2024-02-16T11:31:03;4.43;;;3.63;;
4915;SDS011;70796;52.406;13.230;2024-02-16T11:33:30;8.30;;;4.10;;
4915;SDS011;70796;52.406;13.230;2024-02-16T11:35:57;4.33;;;3.63;;
4915;SDS011;70796;52.406;13.230;2024-02-16T11:38:25;10.60;;;4.30;;
4915;SDS011;70796;52.406;13.230;2024-02-16T11:43:21;7.53;;;3.43;;
4915;SDS011;70796;52.406;13.230;2024-02-16T11:45:48;6.43;;;4.20;;
4915;SDS011;70796;52.406;13.230;2024-02-16T11:48:21;5.43;;;3.57;;
4915;SDS011;70796;52.406;13.230;2024-02-16T11:51:01;3.97;;;3.33;;
4915;SDS011;70796;52.406;13.230;2024-02-16T11:53:29;6.00;;;3.50;;
4915;SDS011;70796;52.406;13.230;2024-02-16T11:55:56;14.00;;;9.20;;
4915;SDS011;70796;52.406;13.230;2024-02-16T11:58:23;8.27;;;3.40;;
4915;SDS011;70796;52.406;13.230;2024-02-16T12:00:51;3.80;;;3.07;;
4915;SDS011;70796;52.406;13.230;2024-02-16T12:03:20;5.73;;;3.40;;
4915;SDS011;70796;52.406;13.230;2024-02-16T12:05:52;4.50;;;3.30;;
4915;SDS011;70796;52.406;13.230;2024-02-16T12:08:20;4.40;;;3.40;;
4915;SDS011;70796;52.406;13.230;2024-02-16T12:10:49;3.73;;;3.00;;
4915;SDS011;70796;52.406;13.230;2024-02-16T12:13:17;3.10;;;2.63;;
4915;SDS011;70796;52.406;13.230;2024-02-16T12:15:45;3.87;;;3.17;;
4915;SDS011;70796;52.406;13.230;2024-02-16T12:18:20;6.77;;;3.57;;
4915;SDS011;70796;52.406;13.230;2024-02-16T12:21:03;7.10;;;2.63;;
4915;SDS011;70796;52.406;13.230;2024-02-16T12:23:31;4.83;;;3.03;;
4915;SDS011;70796;52.406;13.230;2024-02-16T12:25:59;3.73;;;2.90;;
4915;SDS011;70796;52.406;13.230;2024-02-16T12:28:27;4.53;;;2.30;;
4915;SDS011;70796;52.406;13.230;2024-02-16T12:30:56;4.13;;;2.30;;
4915;SDS011;70796;52.406;13.230;2024-02-16T12:33:26;7.87;;;2.30;;
4915;SDS011;70796;52.406;13.230;2024-02-16T12:35:55;3.07;;;2.27;;
4915;SDS011;70796;52.406;13.230;2024-02-16T12:38:23;4.23;;;2.77;;
4915;SDS011;70796;52.406;13.230;2024-02-16T12:40:52;2.63;;;2.43;;
4915;SDS011;70796;52.406;13.230;2024-02-16T12:43:19;3.27;;;2.20;;
4915;SDS011;70796;52.406;13.230;2024-02-16T12:45:46;4.03;;;2.80;;
4915;SDS011;70796;52.406;13.230;2024-02-16T12:48:14;6.10;;;2.57;;
4915;SDS011;70796;52.406;13.230;2024-02-16T12:50:43;6.07;;;3.00;;
4915;SDS011;70796;52.406;13.230;2024-02-16T12:53:09;5.70;;;2.63;;
4915;SDS011;70796;52.406;13.230;2024-02-16T12:55:36;3.43;;;2.47;;
4915;SDS011;70796;52.406;13.230;2024-02-16T12:58:03;4.50;;;2.70;;
4915;SDS011;70796;52.406;13.230;2024-02-16T13:00:30;4.23;;;2.27;;
4915;SDS011;70796;52.406;13.230;2024-02-16T13:02:59;5.17;;;2.63;;
4915;SDS011;70796;52.406;13.230;2024-02-16T13:05:26;8.00;;;3.30;;
4915;SDS011;70796;52.406;13.230;2024-02-16T13:07:53;5.20;;;2.47;;
4915;SDS011;70796;52.406;13.230;2024-02-16T13:10:20;2.63;;;2.17;;
4915;SDS011;70796;52.406;13.230;2024-02-16T13:12:49;3.50;;;2.50;;
4915;SDS011;70796;52.406;13.230;2024-02-16T13:15:15;5.63;;;2.43;;
4915;SDS011;70796;52.406;13.230;2024-02-16T13:17:53;4.93;;;2.87;;
4915;SDS011;70796;52.406;13.230;2024-02-16T13:20:21;4.40;;;2.57;;
4915;SDS011;70796;52.406;13.230;2024-02-16T13:22:47;2.57;;;2.13;;
4915;SDS011;70796;52.406;13.230;2024-02-16T13:25:14;4.67;;;2.60;;
4915;SDS011;70796;52.406;13.230;2024-02-16T13:27:42;3.53;;;2.20;;
4915;SDS011;70796;52.406;13.230;2024-02-16T13:30:08;4.20;;;2.80;;
4915;SDS011;70796;52.406;13.230;2024-02-16T13:32:35;2.30;;;1.97;;
4915;SDS011;70796;52.406;13.230;2024-02-16T13:35:06;4.70;;;2.20;;
4915;SDS011;70796;52.406;13.230;2024-02-16T13:37:33;3.00;;;1.93;;
4915;SDS011;70796;52.406;13.230;2024-02-16T13:39:59;4.17;;;2.33;;
4915;SDS011;70796;52.406;13.230;2024-02-16T13:42:25;5.40;;;2.20;;
4915;SDS011;70796;52.406;13.230;2024-02-16T13:44:53;3.07;;;2.17;;
4915;SDS011;70796;52.406;13.230;2024-02-16T13:47:20;6.50;;;2.60;;
4915;SDS011;70796;52.406;13.230;2024-02-16T13:49:48;2.40;;;2.10;;
4915;SDS011;70796;52.406;13.230;2024-02-16T13:52:15;2.90;;;2.10;;
4915;SDS011;70796;52.406;13.230;2024-02-16T13:54:41;4.43;;;2.10;;
4915;SDS011;70796;52.406;13.230;2024-02-16T13:57:07;3.30;;;2.30;;
4915;SDS011;70796;52.406;13.230;2024-02-16T13:59:34;3.70;;;2.33;;
4915;SDS011;70796;52.406;13.230;2024-02-16T14:02:01;3.43;;;2.30;;
4915;SDS011;70796;52.406;13.230;2024-02-16T14:04:27;3.47;;;2.00;;
4915;SDS011;70796;52.406;13.230;2024-02-16T14:06:54;2.80;;;2.20;;
4915;SDS011;70796;52.406;13.230;2024-02-16T14:09:21;3.60;;;2.10;;
4915;SDS011;70796;52.406;13.230;2024-02-16T14:11:58;4.40;;;2.40;;
4915;SDS011;70796;52.406;13.230;2024-02-16T14:14:25;4.27;;;2.20;;
4915;SDS011;70796;52.406;13.230;2024-02-16T14:17:03;5.23;;;2.50;;
4915;SDS011;70796;52.406;13.230;2024-02-16T14:19:29;3.80;;;2.37;;
4915;SDS011;70796;52.406;13.230;2024-02-16T14:21:56;2.10;;;1.90;;
4915;SDS011;70796;52.406;13.230;2024-02-16T14:24:23;3.47;;;1.90;;
4915;SDS011;70796;52.406;13.230;2024-02-16T14:26:50;9.00;;;2.40;;
4915;SDS011;70796;52.406;13.230;2024-02-16T14:29:20;3.13;;;2.40;;
4915;SDS011;70796;52.406;13.230;2024-02-16T14:31:46;9.23;;;2.20;;
4915;SDS011;70796;52.406;13.230;2024-02-16T14:34:14;5.33;;;2.93;;
4915;SDS011;70796;52.406;13.230;2024-02-16T14:36:41;3.93;;;2.47;;
4915;SDS011;70796;52.406;13.230;2024-02-16T14:39:07;5.03;;;2.57;;
4915;SDS011;70796;52.406;13.230;2024-02-16T14:41:35;2.53;;;2.13;;
4915;SDS011;70796;52.406;13.230;2024-02-16T14:44:01;3.33;;;2.13;;